createdAt,value
2017-09-10T00:00:01.489Z,11.7
2017-09-10T00:05:01.646Z,11.7
2017-09-10T00:10:01.826Z,11.7
2017-09-10T00:15:02.004Z,11.7
2017-09-10T00:20:01.849Z,11.8
2017-09-10T00:25:01.703Z,11.7
2017-09-10T00:30:01.653Z,11.7
2017-09-10T00:35:01.775Z,11.7
2017-09-10T00:40:01.786Z,11.6
2017-09-10T00:45:01.526Z,11.6
2017-09-10T00:50:01.280Z,11.6
2017-09-10T00:55:02.014Z,11.6
2017-09-10T01:00:01.699Z,11.6
2017-09-10T01:05:01.511Z,11.6
2017-09-10T01:10:01.189Z,11.6
2017-09-10T01:15:01.994Z,11.6
2017-09-10T01:20:01.872Z,11.6
2017-09-10T01:25:01.548Z,11.6
2017-09-10T01:30:01.393Z,11.5
2017-09-10T01:35:02.053Z,11.5
2017-09-10T01:40:01.873Z,11.5
2017-09-10T01:45:01.846Z,11.4
2017-09-10T01:50:01.546Z,11.3
2017-09-10T01:55:01.775Z,11.3
2017-09-10T02:00:01.466Z,11.2
2017-09-10T02:05:01.824Z,11.2
2017-09-10T02:10:01.615Z,11.2
2017-09-10T02:15:01.550Z,11.2
2017-09-10T02:20:01.547Z,11
2017-09-10T02:25:01.791Z,11
2017-09-10T02:30:01.833Z,10.9
2017-09-10T02:35:01.242Z,10.8
2017-09-10T02:40:01.990Z,10.8
2017-09-10T02:45:01.917Z,10.8
2017-09-10T02:50:01.836Z,10.8
2017-09-10T02:55:01.443Z,10.8
2017-09-10T03:00:01.532Z,10.8
2017-09-10T03:05:01.377Z,10.7
2017-09-10T03:10:02.072Z,10.7
2017-09-10T03:15:02.060Z,10.6
2017-09-10T03:20:01.617Z,10.6
2017-09-10T03:25:01.561Z,10.6
2017-09-10T03:30:01.593Z,10.6
2017-09-10T03:35:01.933Z,10.6
2017-09-10T03:40:01.762Z,10.6
2017-09-10T03:45:02.049Z,10.6
2017-09-10T03:50:01.724Z,10.6
2017-09-10T03:55:01.931Z,10.6
2017-09-10T04:00:01.897Z,10.6
2017-09-10T04:05:01.735Z,10.5
2017-09-10T04:10:01.687Z,10.5
2017-09-10T04:15:01.653Z,10.5
2017-09-10T04:20:01.558Z,10.5
2017-09-10T04:25:01.382Z,10.5
2017-09-10T04:30:02.063Z,10.5
2017-09-10T04:35:01.285Z,10.4
2017-09-10T04:40:01.650Z,10.5
2017-09-10T04:45:01.829Z,10.4
2017-09-10T04:50:01.173Z,10.4
2017-09-10T04:55:02.154Z,10.4
2017-09-10T05:00:02.161Z,10.4
2017-09-10T05:05:01.583Z,10.4
2017-09-10T05:10:01.315Z,10.4
2017-09-10T05:15:01.715Z,10.5
2017-09-10T05:20:01.399Z,10.5
2017-09-10T05:25:01.497Z,10.5
2017-09-10T05:30:01.573Z,10.6
2017-09-10T05:35:01.209Z,10.6
2017-09-10T05:40:01.398Z,10.6
2017-09-10T05:45:01.690Z,10.6
2017-09-10T05:50:01.607Z,10.7
2017-09-10T05:55:02.170Z,10.8
2017-09-10T06:00:02.121Z,10.8
2017-09-10T06:05:01.141Z,10.8
2017-09-10T06:10:01.196Z,10.8
2017-09-10T06:15:01.791Z,10.8
2017-09-10T06:20:01.460Z,10.9
2017-09-10T06:25:02.089Z,10.9
2017-09-10T06:30:01.294Z,10.9
2017-09-10T06:35:02.026Z,10.9
2017-09-10T06:40:02.011Z,11.1
2017-09-10T06:45:01.788Z,11.2
2017-09-10T06:50:01.690Z,11.1
2017-09-10T06:55:01.644Z,11.2
2017-09-10T07:00:01.667Z,11.2
2017-09-10T07:05:01.436Z,11.2
2017-09-10T07:10:01.338Z,11.4
2017-09-10T07:15:01.211Z,11.5
2017-09-10T07:20:01.921Z,11.5
2017-09-10T07:25:01.784Z,11.7
2017-09-10T07:30:01.816Z,12
2017-09-10T07:35:02.081Z,12
2017-09-10T07:40:01.822Z,12.1
2017-09-10T07:45:01.613Z,12.3
2017-09-10T07:50:01.434Z,12.4
2017-09-10T07:55:01.803Z,12.5
2017-09-10T08:00:01.833Z,12.7
2017-09-10T08:05:01.304Z,12.8
2017-09-10T08:10:02.148Z,13
2017-09-10T08:15:01.258Z,13.2
2017-09-10T08:20:01.304Z,13.4
2017-09-10T08:25:02.241Z,13.4
2017-09-10T08:30:01.293Z,13.7
2017-09-10T08:35:01.294Z,14
2017-09-10T08:40:01.420Z,14.3
2017-09-10T08:45:01.647Z,14.4
2017-09-10T08:50:01.569Z,14.7
2017-09-10T08:55:01.989Z,15
2017-09-10T09:00:01.971Z,15
2017-09-10T09:05:01.687Z,15
2017-09-10T09:10:01.929Z,15
2017-09-10T09:15:01.329Z,15
2017-09-10T09:20:01.946Z,15
2017-09-10T09:25:01.774Z,15.7
2017-09-10T09:30:02.049Z,15.8
2017-09-10T09:35:01.690Z,16
2017-09-10T09:40:01.246Z,16.2
2017-09-10T09:45:01.222Z,16.3
2017-09-10T09:50:02.168Z,16.3
2017-09-10T09:55:01.340Z,16.3
2017-09-10T10:00:01.843Z,16.4
2017-09-10T10:05:01.399Z,16.4
2017-09-10T10:10:01.192Z,16.4
2017-09-10T10:15:01.867Z,16.6
2017-09-10T10:20:01.625Z,16.7
2017-09-10T10:25:01.657Z,16.9
2017-09-10T10:30:01.238Z,17
2017-09-10T10:35:02.090Z,17
2017-09-10T10:40:01.244Z,17
2017-09-10T10:45:01.725Z,17.1
2017-09-10T10:50:01.610Z,17.3
2017-09-10T10:55:01.596Z,17.3
2017-09-10T11:00:02.128Z,17.4
2017-09-10T11:05:01.975Z,17.4
2017-09-10T11:10:01.798Z,17.3
2017-09-10T11:15:02.032Z,17.3
2017-09-10T11:20:01.748Z,17.3
2017-09-10T11:25:01.711Z,17.3
2017-09-10T11:30:02.027Z,17.3
2017-09-10T11:35:01.211Z,17.3
2017-09-10T11:40:01.978Z,17.3
2017-09-10T11:45:01.687Z,17.3
2017-09-10T11:50:01.976Z,17.4
2017-09-10T11:55:01.377Z,17.5
2017-09-10T12:00:01.750Z,17.5
2017-09-10T12:05:01.198Z,17.6
2017-09-10T12:10:02.022Z,17.6
2017-09-10T12:15:01.339Z,17.7
2017-09-10T12:20:01.441Z,17.7
2017-09-10T12:25:01.560Z,17.7
2017-09-10T12:30:01.936Z,17.7
2017-09-10T12:35:01.474Z,17.8
2017-09-10T12:40:01.561Z,17.9
2017-09-10T12:45:01.534Z,17.9
2017-09-10T12:50:01.478Z,17.9
2017-09-10T12:55:01.282Z,17.9
2017-09-10T13:00:01.705Z,18
2017-09-10T13:05:01.340Z,18
2017-09-10T13:10:01.465Z,17.9
2017-09-10T13:15:01.993Z,17.9
2017-09-10T13:20:01.718Z,18
2017-09-10T13:25:01.639Z,18
2017-09-10T13:30:01.997Z,18
2017-09-10T13:35:02.264Z,18
2017-09-10T13:40:01.227Z,18
2017-09-10T13:45:01.575Z,18
2017-09-10T13:50:01.705Z,18.1
2017-09-10T13:55:02.125Z,18.1
2017-09-10T14:00:01.870Z,18.1
2017-09-10T14:05:02.083Z,18.2
2017-09-10T14:10:01.177Z,18.2
2017-09-10T14:15:02.134Z,18.2
2017-09-10T14:20:01.872Z,18.1
2017-09-10T14:25:01.875Z,18.1
2017-09-10T14:30:02.074Z,18.2
2017-09-10T14:35:01.718Z,18.2
2017-09-10T14:40:01.384Z,18.3
2017-09-10T14:45:01.940Z,18.2
2017-09-10T14:50:01.961Z,18.1
2017-09-10T14:55:01.353Z,18
2017-09-10T15:00:01.510Z,18
2017-09-10T15:05:01.615Z,18
2017-09-10T15:10:02.070Z,18
2017-09-10T15:15:01.308Z,18
2017-09-10T15:20:01.880Z,18
2017-09-10T15:25:01.883Z,17.8
2017-09-10T15:30:02.442Z,17.8
2017-09-10T15:35:02.649Z,17.9
2017-09-10T15:40:01.464Z,17.9
2017-09-10T15:45:02.064Z,17.9
2017-09-10T15:50:02.112Z,17.9
2017-09-10T15:55:01.438Z,17.9
2017-09-10T16:00:02.517Z,17.9
2017-09-10T16:05:01.196Z,17.9
2017-09-10T16:10:02.270Z,18
2017-09-10T16:15:01.858Z,18
2017-09-10T16:20:01.696Z,17.9
2017-09-10T16:25:01.472Z,17.9
2017-09-10T16:30:01.502Z,17.8
2017-09-10T16:35:01.450Z,17.7
2017-09-10T16:40:01.737Z,17.7
2017-09-10T16:45:01.542Z,17.7
2017-09-10T16:50:01.508Z,17.5
2017-09-10T16:55:01.818Z,17.4
2017-09-10T17:00:02.008Z,17.4
2017-09-10T17:05:01.930Z,17.4
2017-09-10T17:10:01.685Z,17.1
2017-09-10T17:15:01.489Z,17
2017-09-10T17:20:01.474Z,16.9
2017-09-10T17:25:01.915Z,16.9
2017-09-10T17:30:01.881Z,16.8
2017-09-10T17:35:01.874Z,16.7
2017-09-10T17:40:02.181Z,16.5
2017-09-10T17:45:01.890Z,16.4
2017-09-10T17:50:01.624Z,16.4
2017-09-10T17:55:01.270Z,16.1
2017-09-10T18:00:01.437Z,16.1
2017-09-10T18:05:01.331Z,16
2017-09-10T18:10:02.212Z,15.9
2017-09-10T18:15:01.403Z,15.9
2017-09-10T18:20:01.611Z,15.6
2017-09-10T18:25:02.169Z,15.5
2017-09-10T18:30:01.557Z,15.3
2017-09-10T18:35:01.860Z,15.2
2017-09-10T18:40:01.333Z,15.2
2017-09-10T18:45:01.965Z,15
2017-09-10T18:50:01.945Z,15
2017-09-10T18:55:02.016Z,15
2017-09-10T19:00:01.387Z,15
2017-09-10T19:05:01.858Z,15
2017-09-10T19:10:01.690Z,15
2017-09-10T19:15:01.998Z,15
2017-09-10T19:20:01.603Z,15
2017-09-10T19:25:01.379Z,15
2017-09-10T19:30:01.821Z,15
2017-09-10T19:35:02.063Z,15
2017-09-10T19:40:01.975Z,15
2017-09-10T19:45:01.815Z,15
2017-09-10T19:50:01.889Z,15
2017-09-10T19:55:01.268Z,15
2017-09-10T20:00:01.721Z,15
2017-09-10T20:05:01.690Z,15
2017-09-10T20:10:01.999Z,15
2017-09-10T20:15:01.532Z,15
2017-09-10T20:20:01.774Z,15
2017-09-10T20:25:01.760Z,15
2017-09-10T20:30:01.908Z,15
2017-09-10T20:35:01.643Z,15
2017-09-10T20:40:01.783Z,15
2017-09-10T20:45:01.232Z,15
2017-09-10T20:50:01.569Z,15
2017-09-10T20:55:02.085Z,15
2017-09-10T21:00:01.170Z,15
2017-09-10T21:05:01.573Z,15
2017-09-10T21:10:01.963Z,15
2017-09-10T21:15:02.112Z,15
2017-09-10T21:20:01.388Z,15
2017-09-10T21:25:01.620Z,15
2017-09-10T21:30:01.558Z,15
2017-09-10T21:35:01.173Z,15
2017-09-10T21:40:01.254Z,15
2017-09-10T21:45:02.113Z,15
2017-09-10T21:50:01.929Z,15
2017-09-10T21:55:01.896Z,15
2017-09-10T22:00:01.932Z,15
2017-09-10T22:05:02.118Z,15
2017-09-10T22:10:01.785Z,15
2017-09-10T22:15:02.156Z,15
2017-09-10T22:20:01.202Z,15
2017-09-10T22:25:02.076Z,15
2017-09-10T22:30:01.809Z,14.9
2017-09-10T22:35:01.939Z,14.8
2017-09-10T22:40:01.739Z,14.8
2017-09-10T22:45:02.156Z,14.7
2017-09-10T22:50:01.881Z,14.6
2017-09-10T22:55:01.812Z,14.6
2017-09-10T23:00:01.560Z,14.6
2017-09-10T23:05:01.353Z,14.6
2017-09-10T23:10:02.025Z,14.6
2017-09-10T23:15:01.848Z,14.6
2017-09-10T23:20:01.606Z,14.6
2017-09-10T23:25:01.299Z,14.6
2017-09-10T23:30:02.103Z,14.5
2017-09-10T23:35:01.834Z,14.5
2017-09-10T23:40:01.596Z,14.5
2017-09-10T23:45:01.347Z,14.5
2017-09-10T23:50:02.063Z,14.5
2017-09-10T23:55:01.820Z,14.5
